Time;durP1;ratioP1;P1;durP2;ratioP2;P2;SDS_P1;SDS_P2;PMS_P1;PMS_P2;Temp;Humidity;BMP_temperature;BMP_pressure;BME280_temperature;BME280_humidity;BME280_pressure;Samples;Min_cycle;Max_cycle;Signal;HPM_P1;HPM_P2
2022/09/08 00:00:31;;;;;;;;;;;20.40;62.70;;;;;;5141370;27;20301;-46
2022/09/08 00:02:58;;;;;;;;;;;21.10;64.30;;;;;;5141739;27;19927;-56
2022/09/08 00:05:24;;;;;;;;;;;21.70;62.70;;;;;;5124407;27;20064;-47
2022/09/08 00:07:51;;;;;;;;;;;20.90;59.70;;;;;;5122533;27;19959;-48
2022/09/08 00:10:17;;;;;;;;;;;20.60;57.40;;;;;;5146685;27;20006;-47
2022/09/08 00:12:43;;;;;;;;;;;20.20;56.30;;;;;;5141354;27;19926;-47
2022/09/08 00:15:09;;;;;;;;;;;20.10;55.00;;;;;;5140976;27;19975;-46
2022/09/08 00:17:35;;;;;;;;;;;20.10;54.00;;;;;;5146680;27;19923;-48
2022/09/08 00:20:01;;;;;;;;;;;19.90;56.40;;;;;;5122833;27;19935;-47
2022/09/08 00:22:27;;;;;;;;;;;20.50;62.80;;;;;;5137841;27;19931;-47
2022/09/08 00:24:53;;;;;;;;;;;21.10;64.60;;;;;;5145594;27;20364;-48
2022/09/08 00:27:18;;;;;;;;;;;21.50;62.50;;;;;;5140792;27;19923;-45
2022/09/08 00:29:44;;;;;;;;;;;20.80;59.10;;;;;;5146397;27;19940;-45
2022/09/08 00:32:10;;;;;;;;;;;20.50;57.00;;;;;;5140945;27;19927;-45
2022/09/08 00:34:36;;;;;;;;;;;20.00;55.90;;;;;;5140998;27;20294;-47
2022/09/08 00:37:02;;;;;;;;;;;20.00;55.00;;;;;;5146635;27;19995;-46
2022/09/08 00:39:28;;;;;;;;;;;19.90;54.30;;;;;;5139434;27;20018;-46
2022/09/08 00:41:54;;;;;;;;;;;19.90;55.20;;;;;;5137744;27;19923;-45
2022/09/08 00:44:40;;;;;;;;;;;20.40;62.10;;;;;;5145939;27;20294;-47
2022/09/08 00:47:14;;;;;;;;;;;21.10;64.20;;;;;;5140717;27;19923;-45
2022/09/08 00:49:39;;;;;;;;;;;21.70;62.90;;;;;;5140887;27;20416;-51
2022/09/08 00:52:05;;;;;;;;;;;20.90;59.90;;;;;;5130935;27;19923;-50
2022/09/08 00:54:31;;;;;;;;;;;20.50;57.70;;;;;;5144382;27;20419;-46
2022/09/08 00:56:57;;;;;;;;;;;20.20;56.10;;;;;;5149715;27;19962;-48
2022/09/08 00:59:24;;;;;;;;;;;20.10;54.70;;;;;;5140353;27;19938;-47
2022/09/08 01:01:50;;;;;;;;;;;20.00;54.70;;;;;;5143421;27;19935;-46
2022/09/08 01:04:16;;;;;;;;;;;19.90;54.80;;;;;;5130804;27;19962;-47
2022/09/08 01:15:04;;;;;;;;;;;20.90;59.10;;;;;;5131830;27;19926;-45
2022/09/08 01:17:29;;;;;;;;;;;20.60;56.60;;;;;;5140356;27;19923;-47
2022/09/08 01:19:56;;;;;;;;;;;20.30;55.90;;;;;;5148159;27;19922;-45
2022/09/08 01:22:31;;;;;;;;;;;20.00;55.10;;;;;;5124302;27;20010;-46
2022/09/08 01:25:06;;;;;;;;;;;19.90;54.40;;;;;;5143974;27;19930;-46
2022/09/08 01:27:32;;;;;;;;;;;20.00;56.80;;;;;;5131062;27;19923;-47
2022/09/08 01:30:01;;;;;;;;;;;20.60;63.30;;;;;;5144018;27;20433;-47
2022/09/08 01:32:27;;;;;;;;;;;21.20;65.00;;;;;;5125497;27;20480;-47
2022/09/08 01:34:53;;;;;;;;;;;21.50;62.70;;;;;;5128612;27;20445;-45
2022/09/08 01:37:19;;;;;;;;;;;20.70;59.40;;;;;;5141437;27;19923;-45
2022/09/08 01:39:45;;;;;;;;;;;20.50;57.20;;;;;;5144638;27;19946;-57
2022/09/08 01:42:11;;;;;;;;;;;20.20;56.00;;;;;;5147750;27;19924;-45
2022/09/08 01:44:36;;;;;;;;;;;20.00;55.00;;;;;;5143829;27;20013;-47
2022/09/08 01:47:02;;;;;;;;;;;20.00;56.60;;;;;;5149053;27;21314;-45
2022/09/08 01:49:28;;;;;;;;;;;20.60;63.10;;;;;;5143599;27;19927;-48
2022/09/08 01:51:54;;;;;;;;;;;21.20;65.20;;;;;;5143845;27;19929;-45
2022/09/08 01:54:20;;;;;;;;;;;21.50;62.60;;;;;;5145428;27;19923;-47
2022/09/08 01:56:45;;;;;;;;;;;20.70;59.40;;;;;;5142211;27;19992;-45
2022/09/08 01:59:11;;;;;;;;;;;20.40;57.70;;;;;;5143151;27;19931;-47
2022/09/08 02:01:37;;;;;;;;;;;20.30;55.90;;;;;;5147888;27;19927;-47
2022/09/08 02:04:03;;;;;;;;;;;19.90;55.40;;;;;;5142550;27;19923;-46
2022/09/08 02:06:29;;;;;;;;;;;19.80;54.30;;;;;;5148787;27;19980;-48
2022/09/08 02:08:55;;;;;;;;;;;20.10;61.10;;;;;;5143367;27;19927;-48
2022/09/08 02:11:21;;;;;;;;;;;20.80;65.10;;;;;;5142095;27;20018;-47
2022/09/08 02:13:47;;;;;;;;;;;21.40;65.00;;;;;;5145626;27;19934;-45
2022/09/08 02:16:13;;;;;;;;;;;21.40;62.10;;;;;;5142807;27;19923;-46
2022/09/08 02:18:39;;;;;;;;;;;20.80;59.20;;;;;;5143240;27;20505;-46
2022/09/08 02:21:11;;;;;;;;;;;20.50;56.90;;;;;;5148765;27;20468;-45
2022/09/08 02:23:38;;;;;;;;;;;20.30;55.70;;;;;;5143053;27;19930;-49
2022/09/08 02:26:04;;;;;;;;;;;20.00;54.90;;;;;;5148528;27;19922;-53
2022/09/08 02:28:30;;;;;;;;;;;20.00;55.50;;;;;;5143547;27;19982;-47
2022/09/08 02:30:56;;;;;;;;;;;20.50;62.70;;;;;;5139766;27;19923;-49
2022/09/08 02:33:22;;;;;;;;;;;21.10;65.20;;;;;;5147254;27;20018;-47
2022/09/08 02:35:47;;;;;;;;;;;21.70;64.00;;;;;;5142811;27;19930;-45
2022/09/08 02:38:13;;;;;;;;;;;21.00;60.40;;;;;;5142766;27;19924;-44
2022/09/08 02:40:39;;;;;;;;;;;20.60;57.90;;;;;;5148258;27;20017;-46
2022/09/08 02:43:05;;;;;;;;;;;20.30;56.20;;;;;;5142908;27;19927;-46
2022/09/08 02:45:30;;;;;;;;;;;20.10;55.10;;;;;;5145397;27;19931;-57
2022/09/08 02:47:58;;;;;;;;;;;19.80;54.60;;;;;;5144865;27;20286;-52
2022/09/08 02:50:24;;;;;;;;;;;20.00;58.50;;;;;;5139492;27;19923;-47
2022/09/08 02:52:49;;;;;;;;;;;20.60;63.70;;;;;;5147487;27;19972;-49
2022/09/08 02:55:15;;;;;;;;;;;21.20;64.90;;;;;;5142610;27;19930;-48
2022/09/08 02:57:41;;;;;;;;;;;21.80;63.10;;;;;;5142721;27;19930;-48
2022/09/08 03:00:09;;;;;;;;;;;21.00;60.30;;;;;;5147982;27;19980;-47
2022/09/08 03:02:34;;;;;;;;;;;20.50;57.60;;;;;;5142496;27;19923;-45
2022/09/08 03:05:00;;;;;;;;;;;20.20;56.40;;;;;;5142244;27;19930;-46
2022/09/08 03:07:26;;;;;;;;;;;20.10;54.80;;;;;;5144636;27;20388;-47
2022/09/08 03:09:52;;;;;;;;;;;19.90;54.30;;;;;;5140558;27;19927;-47
2022/09/08 03:12:18;;;;;;;;;;;20.10;59.40;;;;;;5147469;27;19931;-48
2022/09/08 03:14:43;;;;;;;;;;;20.70;64.10;;;;;;5141979;27;19923;-50
2022/09/08 03:17:09;;;;;;;;;;;21.30;64.90;;;;;;5142150;27;19934;-48
2022/09/08 03:19:35;;;;;;;;;;;21.50;62.50;;;;;;5147526;27;20363;-47
2022/09/08 03:22:01;;;;;;;;;;;20.80;59.40;;;;;;5141937;27;19930;-45
2022/09/08 03:24:27;;;;;;;;;;;20.50;57.10;;;;;;5141658;27;19935;-49
2022/09/08 03:26:53;;;;;;;;;;;20.20;55.60;;;;;;5143451;27;20012;-45
2022/09/08 03:29:19;;;;;;;;;;;20.00;54.50;;;;;;5141161;27;19927;-49
2022/09/08 03:31:45;;;;;;;;;;;19.90;54.00;;;;;;5147179;27;20411;-49
2022/09/08 03:34:11;;;;;;;;;;;19.90;55.30;;;;;;5141979;27;19923;-46
2022/09/08 03:36:37;;;;;;;;;;;20.30;62.60;;;;;;5141781;27;19931;-46
2022/09/08 03:39:02;;;;;;;;;;;20.90;64.70;;;;;;5147289;27;19955;-48
2022/09/08 03:41:28;;;;;;;;;;;21.60;64.00;;;;;;5121794;27;19992;-47
2022/09/08 03:43:54;;;;;;;;;;;21.00;60.70;;;;;;5139317;27;20484;-46
2022/09/08 03:46:20;;;;;;;;;;;20.60;58.10;;;;;;5145296;27;20407;-49
2022/09/08 03:48:45;;;;;;;;;;;20.30;56.30;;;;;;5141300;27;19923;-46
2022/09/08 03:51:15;;;;;;;;;;;20.00;54.90;;;;;;5147027;27;19923;-46
2022/09/08 03:53:42;;;;;;;;;;;20.00;54.40;;;;;;5124800;27;20289;-46
2022/09/08 03:56:08;;;;;;;;;;;19.90;55.60;;;;;;5123282;27;19931;-46
2022/09/08 03:58:34;;;;;;;;;;;20.30;62.70;;;;;;5147099;27;19927;-46
2022/09/08 04:01:00;;;;;;;;;;;21.00;64.60;;;;;;5141566;27;19923;-48
2022/09/08 04:03:27;;;;;;;;;;;21.60;62.90;;;;;;5137281;27;19930;-46
2022/09/08 04:05:52;;;;;;;;;;;20.80;59.70;;;;;;5146319;27;19931;-46
2022/09/08 04:08:18;;;;;;;;;;;20.50;57.40;;;;;;5141305;27;19973;-46
2022/09/08 04:10:44;;;;;;;;;;;20.20;55.70;;;;;;5142493;27;20418;-53
2022/09/08 04:13:11;;;;;;;;;;;20.00;55.00;;;;;;5146142;27;19966;-47
2022/09/08 04:15:38;;;;;;;;;;;20.00;58.10;;;;;;5141525;27;20289;-46
2022/09/08 04:18:04;;;;;;;;;;;20.70;63.30;;;;;;5146890;27;19940;-47
2022/09/08 04:20:30;;;;;;;;;;;21.30;64.50;;;;;;5138771;27;19927;-46
2022/09/08 04:22:56;;;;;;;;;;;21.50;62.00;;;;;;5120342;27;19923;-49
2022/09/08 04:25:22;;;;;;;;;;;20.70;59.00;;;;;;5146558;27;19926;-47
2022/09/08 04:27:48;;;;;;;;;;;20.30;56.80;;;;;;5144701;27;19927;-47
2022/09/08 04:30:14;;;;;;;;;;;20.10;55.90;;;;;;5144790;27;19960;-46
2022/09/08 04:32:40;;;;;;;;;;;19.90;54.60;;;;;;5150316;27;19955;-47
2022/09/08 04:35:06;;;;;;;;;;;19.80;54.00;;;;;;5144837;27;20388;-50
2022/09/08 04:37:32;;;;;;;;;;;20.10;60.50;;;;;;5150261;27;20015;-46
2022/09/08 04:39:58;;;;;;;;;;;20.80;63.90;;;;;;5140975;27;19966;-50
2022/09/08 04:42:24;;;;;;;;;;;21.30;64.30;;;;;;5125389;27;19923;-46
2022/09/08 04:44:49;;;;;;;;;;;21.20;61.00;;;;;;5149839;27;19931;-46
2022/09/08 04:47:15;;;;;;;;;;;20.50;58.50;;;;;;5144612;27;19966;-46
2022/09/08 04:49:41;;;;;;;;;;;20.20;56.50;;;;;;5125946;27;20277;-45
2022/09/08 04:52:07;;;;;;;;;;;20.00;55.30;;;;;;5150071;27;19966;-51
2022/09/08 04:54:33;;;;;;;;;;;19.80;54.50;;;;;;5144667;27;20454;-46
2022/09/08 04:56:58;;;;;;;;;;;20.00;59.70;;;;;;5147698;27;19927;-45
2022/09/08 04:59:25;;;;;;;;;;;20.70;63.70;;;;;;5142216;27;19927;-47
2022/09/08 05:01:51;;;;;;;;;;;21.30;64.30;;;;;;5144033;27;19927;-45
2022/09/08 05:04:17;;;;;;;;;;;21.40;61.40;;;;;;5149776;27;20440;-45
2022/09/08 05:06:44;;;;;;;;;;;20.60;58.50;;;;;;5144119;27;19929;-45
2022/09/08 05:09:11;;;;;;;;;;;20.20;57.10;;;;;;5143878;27;19964;-45
2022/09/08 05:11:37;;;;;;;;;;;19.90;55.60;;;;;;5149753;27;19923;-47
2022/09/08 05:14:02;;;;;;;;;;;19.80;54.90;;;;;;5144139;27;20430;-49
2022/09/08 05:16:28;;;;;;;;;;;20.20;60.50;;;;;;5143528;27;19930;-56
2022/09/08 05:18:55;;;;;;;;;;;20.80;64.10;;;;;;5146103;27;19923;-49
2022/09/08 05:21:21;;;;;;;;;;;21.50;63.90;;;;;;5143821;27;19927;-47
2022/09/08 05:23:47;;;;;;;;;;;21.10;60.60;;;;;;5149326;27;19948;-47
2022/09/08 05:26:13;;;;;;;;;;;20.70;58.00;;;;;;5143929;27;19923;-48
2022/09/08 05:28:39;;;;;;;;;;;20.20;56.50;;;;;;5144057;27;19923;-50
2022/09/08 05:31:05;;;;;;;;;;;20.10;55.30;;;;;;5149394;27;20021;-45
2022/09/08 05:33:31;;;;;;;;;;;20.00;54.20;;;;;;5123755;27;19931;-47
2022/09/08 05:35:57;;;;;;;;;;;19.90;56.10;;;;;;5140631;27;20013;-54
2022/09/08 05:38:23;;;;;;;;;;;20.40;63.00;;;;;;5148553;27;20298;-49
2022/09/08 05:40:48;;;;;;;;;;;21.00;64.80;;;;;;5125091;27;19927;-48
2022/09/08 05:43:14;;;;;;;;;;;21.50;62.80;;;;;;5149270;27;19927;-49
2022/09/08 05:45:47;;;;;;;;;;;20.90;59.20;;;;;;5143532;27;19923;-46
2022/09/08 05:48:13;;;;;;;;;;;20.30;57.20;;;;;;5143597;27;19931;-46
2022/09/08 05:50:43;;;;;;;;;;;20.20;56.10;;;;;;5149136;27;19929;-46
2022/09/08 05:53:08;;;;;;;;;;;19.90;54.80;;;;;;5139914;27;19930;-50
2022/09/08 05:55:34;;;;;;;;;;;19.80;54.10;;;;;;5142138;27;20610;-45
2022/09/08 05:58:00;;;;;;;;;;;20.00;58.70;;;;;;5148774;27;19923;-45
2022/09/08 06:00:26;;;;;;;;;;;20.60;63.90;;;;;;5143503;27;19945;-45
2022/09/08 06:02:52;;;;;;;;;;;21.20;64.40;;;;;;5147716;27;19923;-53
2022/09/08 06:05:19;;;;;;;;;;;21.40;61.60;;;;;;5145153;27;20319;-47
2022/09/08 06:07:45;;;;;;;;;;;20.70;58.50;;;;;;5143344;27;20242;-49
2022/09/08 06:10:11;;;;;;;;;;;20.40;56.80;;;;;;5147207;27;19937;-48
2022/09/08 06:12:36;;;;;;;;;;;20.30;55.30;;;;;;5140210;27;19947;-45
2022/09/08 06:15:02;;;;;;;;;;;20.10;54.30;;;;;;5142572;27;19970;-47
2022/09/08 06:17:28;;;;;;;;;;;20.00;58.10;;;;;;5128528;27;20295;-49
2022/09/08 06:19:54;;;;;;;;;;;20.60;63.20;;;;;;5143216;27;20382;-47
2022/09/08 06:22:20;;;;;;;;;;;21.30;63.50;;;;;;5144355;27;19930;-52
2022/09/08 06:24:45;;;;;;;;;;;21.40;61.10;;;;;;5147275;27;19923;-46
2022/09/08 06:27:14;;;;;;;;;;;20.80;58.20;;;;;;5124501;27;20341;-44
2022/09/08 06:29:54;;;;;;;;;;;20.30;56.70;;;;;;5126673;27;19923;-48
2022/09/08 06:32:27;;;;;;;;;;;20.30;54.80;;;;;;5142018;27;20351;-47
2022/09/08 06:34:59;;;;;;;;;;;19.90;54.00;;;;;;5142768;27;20396;-45
2022/09/08 06:37:27;;;;;;;;;;;19.80;54.50;;;;;;5129482;27;19923;-46
2022/09/08 06:39:54;;;;;;;;;;;20.40;61.00;;;;;;5142785;27;19931;-49
2022/09/08 06:42:20;;;;;;;;;;;21.00;63.00;;;;;;5142850;27;20007;-45
2022/09/08 06:44:47;;;;;;;;;;;21.80;62.20;;;;;;5128319;27;19972;-45
2022/09/08 06:47:21;;;;;;;;;;;21.00;59.20;;;;;;5136492;27;19923;-46
2022/09/08 06:49:48;;;;;;;;;;;20.40;57.20;;;;;;5121314;27;19924;-46
2022/09/08 06:52:17;;;;;;;;;;;20.20;55.30;;;;;;5129353;27;20317;-50
2022/09/08 06:54:54;;;;;;;;;;;19.90;54.30;;;;;;5123873;27;20329;-47
2022/09/08 06:57:30;;;;;;;;;;;20.00;55.30;;;;;;5124519;27;19931;-51
2022/09/08 07:00:16;;;;;;;;;;;20.50;62.20;;;;;;5129593;27;19927;-48
2022/09/08 07:02:51;;;;;;;;;;;21.20;63.00;;;;;;5124265;27;19944;-47
2022/09/08 07:05:31;;;;;;;;;;;21.30;60.10;;;;;;5141209;27;20182;-48
2022/09/08 07:08:00;;;;;;;;;;;20.60;57.80;;;;;;5126816;27;19927;-46
2022/09/08 07:10:27;;;;;;;;;;;20.20;55.70;;;;;;5141794;27;20394;-47
2022/09/08 07:13:05;;;;;;;;;;;19.90;54.60;;;;;;5123845;27;19949;-48
2022/09/08 07:15:52;;;;;;;;;;;19.80;53.80;;;;;;5129471;27;19929;-48
2022/09/08 07:18:21;;;;;;;;;;;19.90;57.40;;;;;;5123863;27;19923;-48
2022/09/08 07:20:46;;;;;;;;;;;20.60;62.50;;;;;;5142105;27;20535;-50
2022/09/08 07:23:20;;;;;;;;;;;21.20;62.90;;;;;;5147305;27;19931;-47
2022/09/08 07:25:55;;;;;;;;;;;21.60;60.60;;;;;;5119842;27;19927;-47
2022/09/08 07:28:24;;;;;;;;;;;20.80;57.80;;;;;;5141560;27;19933;-45
2022/09/08 07:30:52;;;;;;;;;;;20.30;56.10;;;;;;5147296;27;20267;-50
2022/09/08 07:33:22;;;;;;;;;;;20.10;54.50;;;;;;5123587;27;19927;-45
2022/09/08 07:36:09;;;;;;;;;;;19.80;53.70;;;;;;5145301;27;19923;-52
2022/09/08 07:38:37;;;;;;;;;;;20.30;60.80;;;;;;5147686;27;19923;-49
2022/09/08 07:41:03;;;;;;;;;;;21.00;63.20;;;;;;5137923;27;19941;-45
2022/09/08 07:43:30;;;;;;;;;;;21.60;61.20;;;;;;5123782;27;19931;-54
2022/09/08 07:46:15;;;;;;;;;;;20.80;58.40;;;;;;5141961;27;20313;-45
2022/09/08 07:48:44;;;;;;;;;;;20.50;56.20;;;;;;5141497;27;19933;-46
2022/09/08 07:51:12;;;;;;;;;;;20.10;55.00;;;;;;5127521;27;19923;-47
2022/09/08 07:53:40;;;;;;;;;;;19.80;54.40;;;;;;5141908;27;19994;-47
2022/09/08 07:56:12;;;;;;;;;;;19.80;53.40;;;;;;5123301;27;20267;-46
2022/09/08 07:58:41;;;;;;;;;;;20.10;59.00;;;;;;5128663;27;20434;-46
2022/09/08 08:01:22;;;;;;;;;;;20.80;62.30;;;;;;5120626;27;19926;-45
2022/09/08 08:03:56;;;;;;;;;;;21.50;61.70;;;;;;5139664;27;20026;-48
2022/09/08 08:06:26;;;;;;;;;;;21.00;58.70;;;;;;5146737;27;19962;-46
2022/09/08 08:09:00;;;;;;;;;;;20.50;56.70;;;;;;5122787;27;19923;-46
2022/09/08 08:11:32;;;;;;;;;;;20.20;55.30;;;;;;5141178;27;19923;-47
2022/09/08 08:14:36;;;;;;;;;;;19.90;54.00;;;;;;5146893;27;19923;-47
2022/09/08 08:17:02;;;;;;;;;;;19.80;53.10;;;;;;5041817;28;19939;-48
2022/09/08 08:19:30;;;;;;;;;;;20.20;59.90;;;;;;5034317;28;19925;-48
2022/09/08 08:22:05;;;;;;;;;;;20.90;61.90;;;;;;5087457;27;20030;-47
2022/09/08 08:24:49;;;;;;;;;;;21.70;60.70;;;;;;5140771;27;19989;-47
2022/09/08 08:27:27;;;;;;;;;;;21.00;57.80;;;;;;5122557;27;19944;-44
2022/09/08 08:30:12;;;;;;;;;;;20.50;55.80;;;;;;5146706;27;20185;-45
2022/09/08 08:32:39;;;;;;;;;;;20.20;54.30;;;;;;5146973;27;20009;-45
2022/09/08 08:35:06;;;;;;;;;;;19.90;53.90;;;;;;5141090;27;19935;-45
2022/09/08 08:37:32;;;;;;;;;;;20.00;52.70;;;;;;5125657;27;20289;-48
2022/09/08 08:39:58;;;;;;;;;;;20.00;55.20;;;;;;5120394;27;19962;-48
2022/09/08 08:42:42;;;;;;;;;;;20.60;60.60;;;;;;5119958;27;19924;-49
2022/09/08 08:45:14;;;;;;;;;;;21.20;61.20;;;;;;5146317;27;19924;-47
2022/09/08 08:47:59;;;;;;;;;;;21.60;58.80;;;;;;5141058;27;19934;-47
2022/09/08 08:50:30;;;;;;;;;;;20.80;56.80;;;;;;5140854;27;19923;-46
2022/09/08 08:52:59;;;;;;;;;;;20.20;55.30;;;;;;5146401;27;19930;-47
2022/09/08 08:55:28;;;;;;;;;;;20.20;53.40;;;;;;5139776;27;19942;-48
2022/09/08 08:57:57;;;;;;;;;;;20.00;53.00;;;;;;5137780;27;19926;-46
2022/09/08 09:00:24;;;;;;;;;;;19.80;52.80;;;;;;5145607;27;19927;-48
2022/09/08 09:03:08;;;;;;;;;;;20.00;59.20;;;;;;5122279;27;20509;-48
2022/09/08 09:05:52;;;;;;;;;;;20.90;60.90;;;;;;5140750;27;19923;-47
2022/09/08 09:08:30;;;;;;;;;;;21.70;60.00;;;;;;5146073;27;19923;-47
2022/09/08 09:11:10;;;;;;;;;;;21.00;57.30;;;;;;5140761;27;20589;-48
2022/09/08 09:13:44;;;;;;;;;;;20.50;55.80;;;;;;5143725;27;19923;-50
2022/09/08 09:16:32;;;;;;;;;;;20.30;54.20;;;;;;5122785;27;19948;-46
2022/09/08 09:18:59;;;;;;;;;;;19.90;53.40;;;;;;5129539;27;20010;-45
2022/09/08 09:21:43;;;;;;;;;;;20.00;53.80;;;;;;5143839;27;19930;-47
2022/09/08 09:24:33;;;;;;;;;;;20.40;59.90;;;;;;5148315;27;19929;-57
2022/09/08 09:27:00;;;;;;;;;;;21.20;60.50;;;;;;5135859;27;21452;-46
2022/09/08 09:29:25;;;;;;;;;;;21.50;58.40;;;;;;5125448;27;20045;-47
2022/09/08 09:32:04;;;;;;;;;;;20.80;56.60;;;;;;5148927;27;19927;-52
2022/09/08 09:34:45;;;;;;;;;;;20.30;54.90;;;;;;5145481;27;19983;-50
2022/09/08 09:37:29;;;;;;;;;;;20.20;53.90;;;;;;5143210;27;19990;-47
2022/09/08 09:39:56;;;;;;;;;;;20.00;53.00;;;;;;5124665;27;19927;-46
2022/09/08 09:42:34;;;;;;;;;;;19.90;57.30;;;;;;5149280;27;19964;-46
2022/09/08 09:45:19;;;;;;;;;;;20.70;60.50;;;;;;5125172;27;20305;-45
2022/09/08 09:47:57;;;;;;;;;;;21.50;59.70;;;;;;5143572;27;19923;-46
2022/09/08 09:50:41;;;;;;;;;;;21.00;56.90;;;;;;5148192;27;19931;-52
2022/09/08 09:53:10;;;;;;;;;;;20.40;55.50;;;;;;5140422;27;19927;-47
2022/09/08 09:55:44;;;;;;;;;;;20.30;54.20;;;;;;5142709;27;19931;-45
2022/09/08 09:58:19;;;;;;;;;;;20.20;53.00;;;;;;5148580;27;20014;-45
2022/09/08 10:01:08;;;;;;;;;;;19.80;52.60;;;;;;5124976;27;19923;-46
2022/09/08 10:03:37;;;;;;;;;;;20.30;59.50;;;;;;5123331;27;19923;-48
2022/09/08 10:06:06;;;;;;;;;;;21.20;60.00;;;;;;5128736;27;19948;-49
2022/09/08 10:08:51;;;;;;;;;;;21.50;58.10;;;;;;5143096;27;19926;-48
2022/09/08 10:11:35;;;;;;;;;;;20.80;56.00;;;;;;5139444;27;19923;-47
2022/09/08 10:14:13;;;;;;;;;;;20.40;54.20;;;;;;5148047;27;20358;-46
2022/09/08 10:16:56;;;;;;;;;;;20.30;52.90;;;;;;5143076;27;20398;-46
2022/09/08 10:19:40;;;;;;;;;;;19.90;53.20;;;;;;5124764;27;19972;-45
2022/09/08 10:22:06;;;;;;;;;;;19.90;53.00;;;;;;5148603;27;19923;-45
2022/09/08 10:24:41;;;;;;;;;;;20.50;59.30;;;;;;5141993;27;19934;-47
2022/09/08 10:27:26;;;;;;;;;;;21.30;59.20;;;;;;5142334;27;19923;-46
2022/09/08 10:30:13;;;;;;;;;;;21.80;57.20;;;;;;5145304;27;20362;-46
2022/09/08 10:32:38;;;;;;;;;;;20.80;55.50;;;;;;5129621;27;20371;-47
2022/09/08 10:35:04;;;;;;;;;;;20.40;54.00;;;;;;5142325;27;19929;-45
2022/09/08 10:37:36;;;;;;;;;;;20.10;53.70;;;;;;5148166;27;19939;-47
2022/09/08 10:40:08;;;;;;;;;;;20.00;52.60;;;;;;5142645;27;19923;-46
2022/09/08 10:42:37;;;;;;;;;;;20.00;52.00;;;;;;5124326;27;20006;-45
2022/09/08 10:45:10;;;;;;;;;;;20.30;58.20;;;;;;5128904;27;21290;-45
2022/09/08 10:47:55;;;;;;;;;;;21.10;59.20;;;;;;5138468;27;19924;-48
2022/09/08 10:50:21;;;;;;;;;;;21.70;57.10;;;;;;5141944;27;19923;-45
2022/09/08 10:52:53;;;;;;;;;;;20.60;55.90;;;;;;5147812;27;19924;-45
2022/09/08 10:55:27;;;;;;;;;;;20.40;54.20;;;;;;5142582;27;20014;-47
2022/09/08 10:57:56;;;;;;;;;;;20.10;53.30;;;;;;5142528;27;19971;-46
2022/09/08 11:00:22;;;;;;;;;;;20.10;52.80;;;;;;5148160;27;19971;-49
2022/09/08 11:03:06;;;;;;;;;;;20.00;54.50;;;;;;5124021;27;19931;-45
2022/09/08 11:05:40;;;;;;;;;;;20.60;58.90;;;;;;5138384;27;19924;-46
2022/09/08 11:08:24;;;;;;;;;;;21.50;58.10;;;;;;5146822;27;20396;-47
2022/09/08 11:10:50;;;;;;;;;;;21.20;56.00;;;;;;5142105;27;19927;-44
2022/09/08 11:13:35;;;;;;;;;;;20.60;54.90;;;;;;5142235;27;19952;-45
2022/09/08 11:16:19;;;;;;;;;;;20.30;53.40;;;;;;5147607;27;20307;-45
2022/09/08 11:19:04;;;;;;;;;;;20.20;52.50;;;;;;5142078;27;19927;-45
2022/09/08 11:21:31;;;;;;;;;;;20.00;53.50;;;;;;5142146;27;20025;-45
2022/09/08 11:24:10;;;;;;;;;;;20.60;58.90;;;;;;5143560;27;19924;-47
2022/09/08 11:26:55;;;;;;;;;;;21.30;58.70;;;;;;5125290;27;20030;-46
2022/09/08 11:29:21;;;;;;;;;;;21.30;56.40;;;;;;5141589;27;19944;-45
2022/09/08 11:31:56;;;;;;;;;;;20.80;54.80;;;;;;5128811;27;20013;-45
2022/09/08 11:34:22;;;;;;;;;;;20.30;53.70;;;;;;5144478;27;19927;-45
2022/09/08 11:36:57;;;;;;;;;;;20.10;53.30;;;;;;5142045;27;20294;-46
2022/09/08 11:39:38;;;;;;;;;;;19.80;52.80;;;;;;5147546;27;20022;-45
2022/09/08 11:42:23;;;;;;;;;;;20.10;56.80;;;;;;5139895;27;19927;-48
2022/09/08 11:44:51;;;;;;;;;;;20.90;59.30;;;;;;5140628;27;20444;-49
2022/09/08 11:47:35;;;;;;;;;;;21.80;57.80;;;;;;5128577;27;19927;-48
2022/09/08 11:50:01;;;;;;;;;;;20.90;55.70;;;;;;5147276;27;20306;-44
2022/09/08 11:52:34;;;;;;;;;;;20.40;54.40;;;;;;5141865;27;19931;-48
2022/09/08 11:55:19;;;;;;;;;;;20.20;53.20;;;;;;5128828;27;20330;-47
2022/09/08 11:57:50;;;;;;;;;;;20.10;52.60;;;;;;5147363;27;19980;-46
2022/09/08 12:00:35;;;;;;;;;;;19.80;52.70;;;;;;5120136;27;20371;-47
2022/09/08 12:03:19;;;;;;;;;;;20.30;58.70;;;;;;5140882;27;19923;-55
2022/09/08 12:05:57;;;;;;;;;;;21.30;58.70;;;;;;5126543;27;20030;-46
2022/09/08 12:08:33;;;;;;;;;;;21.40;56.10;;;;;;5141373;27;19934;-45
2022/09/08 12:11:05;;;;;;;;;;;20.60;55.20;;;;;;5137171;27;19931;-45
2022/09/08 12:13:30;;;;;;;;;;;20.30;53.90;;;;;;5146969;27;20067;-49
2022/09/08 12:15:56;;;;;;;;;;;20.10;53.00;;;;;;5141345;27;20386;-44
2022/09/08 12:18:34;;;;;;;;;;;19.90;52.20;;;;;;5142139;27;19930;-52
2022/09/08 12:21:06;;;;;;;;;;;20.00;56.30;;;;;;5126222;27;19982;-50
2022/09/08 12:23:51;;;;;;;;;;;20.80;59.20;;;;;;5140901;27;19930;-46
2022/09/08 12:26:44;;;;;;;;;;;21.70;57.50;;;;;;5141001;27;20302;-46
2022/09/08 12:29:24;;;;;;;;;;;21.00;55.60;;;;;;5107135;27;19927;-45
2022/09/08 12:31:59;;;;;;;;;;;20.40;54.50;;;;;;5121344;27;20462;-46
2022/09/08 12:34:44;;;;;;;;;;;20.30;53.10;;;;;;5141117;27;20022;-47
2022/09/08 12:37:14;;;;;;;;;;;20.10;52.50;;;;;;5143011;27;19927;-49
2022/09/08 12:39:58;;;;;;;;;;;19.80;52.10;;;;;;5121210;27;19927;-45
2022/09/08 12:42:43;;;;;;;;;;;20.30;58.00;;;;;;5140876;27;19927;-46
2022/09/08 12:45:24;;;;;;;;;;;21.20;58.60;;;;;;5146548;27;19934;-46
2022/09/08 12:47:50;;;;;;;;;;;21.60;56.60;;;;;;5144116;27;19922;-46
2022/09/08 12:50:15;;;;;;;;;;;20.60;55.60;;;;;;5144499;27;19950;-44
2022/09/08 12:53:00;;;;;;;;;;;20.20;54.50;;;;;;5150161;27;20378;-47
2022/09/08 12:55:34;;;;;;;;;;;20.00;53.50;;;;;;5141302;27;19967;-46
2022/09/08 12:58:01;;;;;;;;;;;20.00;52.50;;;;;;5123873;27;19923;-45
2022/09/08 13:00:30;;;;;;;;;;;20.00;54.60;;;;;;5131202;27;20379;-45
2022/09/08 13:02:59;;;;;;;;;;;20.70;58.90;;;;;;5144403;27;19927;-45
2022/09/08 13:05:43;;;;;;;;;;;21.50;58.20;;;;;;5125753;27;19971;-45
2022/09/08 13:08:15;;;;;;;;;;;21.30;56.20;;;;;;5150072;27;20348;-45
2022/09/08 13:10:41;;;;;;;;;;;20.60;54.60;;;;;;5125698;27;19923;-45
2022/09/08 13:13:26;;;;;;;;;;;20.30;53.60;;;;;;5121881;27;20075;-54
2022/09/08 13:16:04;;;;;;;;;;;20.00;52.90;;;;;;5110045;27;19974;-47
2022/09/08 13:18:49;;;;;;;;;;;20.00;52.30;;;;;;5143962;27;20357;-46
2022/09/08 13:21:24;;;;;;;;;;;20.10;56.00;;;;;;5125578;27;19923;-48
2022/09/08 13:23:53;;;;;;;;;;;20.90;58.70;;;;;;5131046;27;20049;-46
2022/09/08 13:26:38;;;;;;;;;;;21.80;57.00;;;;;;5144198;27;19958;-46
2022/09/08 13:29:13;;;;;;;;;;;21.00;55.40;;;;;;5144064;27;19923;-47
2022/09/08 13:31:58;;;;;;;;;;;20.60;53.90;;;;;;5146975;27;19943;-48
2022/09/08 13:34:42;;;;;;;;;;;20.40;53.00;;;;;;5126805;27;19982;-46
2022/09/08 13:37:29;;;;;;;;;;;20.00;52.60;;;;;;5143444;27;20416;-47
2022/09/08 13:40:14;;;;;;;;;;;19.80;52.20;;;;;;5125470;27;20111;-46
2022/09/08 13:42:42;;;;;;;;;;;20.20;57.20;;;;;;5149301;27;20556;-47
2022/09/08 13:45:23;;;;;;;;;;;21.10;58.00;;;;;;5143834;27;20021;-46
2022/09/08 13:47:52;;;;;;;;;;;21.80;56.30;;;;;;5143924;27;20170;-46
2022/09/08 13:50:37;;;;;;;;;;;20.90;55.00;;;;;;5146132;27;19931;-48
2022/09/08 13:53:02;;;;;;;;;;;20.50;53.80;;;;;;5142041;27;19965;-46
2022/09/08 13:55:39;;;;;;;;;;;20.20;52.80;;;;;;5143337;27;19923;-46
2022/09/08 13:58:08;;;;;;;;;;;20.00;52.40;;;;;;5148637;27;20351;-47
2022/09/08 14:01:06;;;;;;;;;;;19.90;53.70;;;;;;5143345;27;19930;-49
2022/09/08 14:03:33;;;;;;;;;;;20.60;58.10;;;;;;5086417;27;19924;-46
2022/09/08 14:05:59;;;;;;;;;;;21.50;57.00;;;;;;5130368;27;19975;-46
2022/09/08 14:08:29;;;;;;;;;;;21.30;55.40;;;;;;5140747;27;19923;-46
2022/09/08 14:11:08;;;;;;;;;;;20.60;54.30;;;;;;5122515;27;19923;-45
2022/09/08 14:13:34;;;;;;;;;;;20.30;53.10;;;;;;5148306;27;20400;-44
2022/09/08 14:16:09;;;;;;;;;;;20.00;52.70;;;;;;5124685;27;20084;-45
2022/09/08 14:18:54;;;;;;;;;;;19.90;52.30;;;;;;5123830;27;19924;-50
2022/09/08 14:21:24;;;;;;;;;;;20.00;54.00;;;;;;5148629;27;19931;-48
2022/09/08 14:23:57;;;;;;;;;;;20.80;57.40;;;;;;5143088;27;19923;-46
2022/09/08 14:26:23;;;;;;;;;;;21.60;56.40;;;;;;5141293;27;20030;-54
2022/09/08 14:28:52;;;;;;;;;;;21.30;54.50;;;;;;5145597;27;19923;-46
2022/09/08 14:31:32;;;;;;;;;;;20.80;53.70;;;;;;5142654;27;19929;-45
2022/09/08 14:33:58;;;;;;;;;;;20.30;53.00;;;;;;5123009;27;19930;-50
2022/09/08 14:36:42;;;;;;;;;;;20.20;52.40;;;;;;5129334;27;19940;-47
2022/09/08 14:39:27;;;;;;;;;;;20.10;51.90;;;;;;5142758;27;19931;-45
2022/09/08 14:41:54;;;;;;;;;;;19.90;51.60;;;;;;5142897;27;20428;-45
2022/09/08 14:44:26;;;;;;;;;;;20.40;57.20;;;;;;5147572;27;19929;-47
2022/09/08 14:46:59;;;;;;;;;;;21.20;57.10;;;;;;5138845;27;20015;-46